Hancock, NH (03449)

10:47 PM EST on March 03, 2015 (GMT -0500)
Nubanusit Lake | Change Station
CLOSE
Current Station
Personal Weather Station
Location: Hancock, NH
Elevation: 1420 ft
Nearby Weather Stations
Active Advisory: Winter Weather Advisory

Elev 1420 ft 42.99 °N, 72.05 °W | Updated 3 seconds ago

Overcast
Overcast
21.9 °F
Feels Like 22 °F
N
2.0
Wind Variable Wind from South
Gusts 11.0 mph

Today
High -- | Low -- °F
--% Chance of Precip.
Yesterday
High -- | Low -- °F
Precip. -- in
6:20 AM 5:39 PM
Waxing Gibbous, 98% visible
Pressure 29.78 in
Visibility 1.0 miles
Clouds Mostly Cloudy 1000 ft
Overcast 1900 ft
Windchill 22 °F
Dew Point 21 °F
Humidity 93%
Rainfall 0.00 in
Snow Depth Not available.
UV 0 out of 12
Pollen .30 out of 12
Air Quality Not available.
Flu Activity Not available.
SPECI KAFN 040342Z AUTO 19009KT 1SM -SN BR BKN010 OVC019 M05/M07 A2978 RMK AO2 P0002 T10501067

More Conditions Fewer Conditions

Pressure 29.78 in
Visibility 1.0 miles
Clouds Mostly Cloudy 1000 ft
Overcast 1900 ft
Windchill 22 °F
Dew Point 21 °F
Humidity 93%
Rainfall 0.00 in
Snow Depth Not available.
UV 0 out of 12
Pollen .30 out of 12
Air Quality Not available.
Flu Activity Not available.
SPECI KAFN 040342Z AUTO 19009KT 1SM -SN BR BKN010 OVC019 M05/M07 A2978 RMK AO2 P0002 T10501067

More Conditions Fewer Conditions

10-Day Weather Forecast

Almanac

Astronomy

Mar. 03, 2015 Rise Set
Actual Time
Civil Twilight
Nautical Twilight
Astronomical Twilight
Moon
Length of Visible Light
Length of Day
Tomorrow will be .
, % of the Moon is Illuminated

Today's Extremes

State Highs State Lows

Community

WunderPhotos

Upload Photos

1,802,379 photos uploaded!

WunderBlogs® & News

Nearby

Air Quality

  Air Quality AQ Index Pollutant
Not available.

Snow Depth

Station Depth Elevation

Earthquake Activity

City Distance Mag. Time & Date
Minimum magnitude displayed is 2.5.

Coastal Water Temperatures

Place Temperature

Nearby Weather Stations

Winter Weather Advisory
Statement as of 3:06 PM EST on March 03, 2015

... Winter Weather Advisory remains in effect until 7 am EST
Wednesday...

* hazard types... snow and freezing rain.

* Accumulations... snow accumulation of 2 to 4 inches.

* Timing... snow begins late this afternoon and continues into the
pre-dawn hours before ending. Precipitation could briefly mix
with or change to sleet or freezing rain as it ends.

* Impacts... Road will become snow covered and slippery.

* Winds... south 5 to 10 mph with gusts up to 20 mph.

* Temperatures... around 30.

Precautionary/preparedness actions...

A Winter Weather Advisory means that periods of snow... sleet... or
freezing rain will cause travel difficulties. Be prepared for
slippery roads and limited visibilities... and use caution while
driving.